DLH63 EYVI-EVRA
Flight info
| Callsign | DLH63 |
|---|---|
| Flight time | 0h 38m |
| Altitude | 20000 |
| Route | ATMEZ DCT ERIVA |
| Aircraft | A320/M-SDE3FGHIRWY/LB1 |
Departure
| Time | 2026-05-05 15:23 |
|---|---|
| Airport | Vilnius International Airport (EYVI) |
Arrival
| Time | 2026-05-05 16:01 |
|---|---|
| Airport | Riga International Airport (EVRA) |
| Time | Latitude | Longitude | Altitude | Speed | Heading |
|---|---|---|---|---|---|
| 2026-05-05 14:51 | 54.64446 | 25.28455 | 646 ft | 0 kts | 178° |
| 2026-05-05 15:17 | 54.64409 | 25.28545 | 648 ft | 18 kts | 93° |
| 2026-05-05 15:17 | 54.64370 | 25.28652 | 651 ft | 10 kts | 168° |
| 2026-05-05 15:17 | 54.64256 | 25.28677 | 650 ft | 23 kts | 175° |
| 2026-05-05 15:17 | 54.64099 | 25.28701 | 646 ft | 20 kts | 174° |
| 2026-05-05 15:18 | 54.63962 | 25.28646 | 640 ft | 23 kts | 202° |
| 2026-05-05 15:18 | 54.63794 | 25.28527 | 628 ft | 29 kts | 202° |
| 2026-05-05 15:18 | 54.63591 | 25.28382 | 624 ft | 34 kts | 202° |
| 2026-05-05 15:18 | 54.63394 | 25.28246 | 614 ft | 28 kts | 201° |
| 2026-05-05 15:19 | 54.63234 | 25.28137 | 616 ft | 25 kts | 202° |
| 2026-05-05 15:19 | 54.63067 | 25.28021 | 612 ft | 27 kts | 201° |
| 2026-05-05 15:19 | 54.62883 | 25.27894 | 603 ft | 30 kts | 202° |
| 2026-05-05 15:19 | 54.62719 | 25.27778 | 601 ft | 25 kts | 202° |
| 2026-05-05 15:20 | 54.62579 | 25.27682 | 602 ft | 17 kts | 199° |
| 2026-05-05 15:20 | 54.62511 | 25.27676 | 616 ft | 7 kts | 154° |
| 2026-05-05 15:20 | 54.62487 | 25.27703 | 611 ft | 0 kts | 143° |
| 2026-05-05 15:21 | 54.62483 | 25.27708 | 610 ft | 4 kts | 143° |
| 2026-05-05 15:21 | 54.62424 | 25.27799 | 614 ft | 17 kts | 116° |
| 2026-05-05 15:21 | 54.62483 | 25.27930 | 607 ft | 14 kts | 21° |
| 2026-05-05 15:21 | 54.62581 | 25.28001 | 603 ft | 17 kts | 23° |
| 2026-05-05 15:22 | 54.62659 | 25.28054 | 602 ft | 21 kts | 21° |
| 2026-05-05 15:22 | 54.63118 | 25.28371 | 613 ft | 102 kts | 21° |
| 2026-05-05 15:22 | 54.63663 | 25.28755 | 627 ft | 150 kts | 19° |
| 2026-05-05 15:22 | 54.64757 | 25.29500 | 1052 ft | 181 kts | 21° |
| 2026-05-05 15:23 | 54.66379 | 25.30787 | 1946 ft | 205 kts | 23° |
| 2026-05-05 15:23 | 54.67273 | 25.31520 | 2448 ft | 215 kts | 24° |
| 2026-05-05 15:23 | 54.68661 | 25.32697 | 3256 ft | 229 kts | 24° |
| 2026-05-05 15:23 | 54.70142 | 25.33984 | 4033 ft | 252 kts | 24° |
| 2026-05-05 15:24 | 54.71780 | 25.35381 | 4942 ft | 269 kts | 22° |
| 2026-05-05 15:24 | 54.73511 | 25.36675 | 5104 ft | 268 kts | 16° |
| 2026-05-05 15:24 | 54.75254 | 25.37651 | 5035 ft | 262 kts | 13° |
| 2026-05-05 15:24 | 54.77004 | 25.38573 | 5019 ft | 262 kts | 13° |
| 2026-05-05 15:25 | 54.78740 | 25.39532 | 5017 ft | 261 kts | 12° |
| 2026-05-05 15:25 | 54.80510 | 25.40024 | 5009 ft | 255 kts | 357° |
| 2026-05-05 15:25 | 54.82292 | 25.39785 | 5013 ft | 267 kts | 343° |
| 2026-05-05 15:25 | 54.84143 | 25.39011 | 5544 ft | 275 kts | 342° |
| 2026-05-05 15:26 | 54.86017 | 25.38250 | 6532 ft | 276 kts | 342° |
| 2026-05-05 15:26 | 54.87904 | 25.37495 | 7370 ft | 281 kts | 342° |
| 2026-05-05 15:26 | 54.89825 | 25.36731 | 8189 ft | 285 kts | 341° |
| 2026-05-05 15:26 | 54.91773 | 25.35954 | 9020 ft | 289 kts | 341° |
| 2026-05-05 15:27 | 54.93729 | 25.35169 | 9731 ft | 296 kts | 341° |
| 2026-05-05 15:27 | 54.95749 | 25.34357 | 9941 ft | 297 kts | 341° |
| 2026-05-05 15:27 | 54.97807 | 25.33522 | 10015 ft | 318 kts | 341° |
| 2026-05-05 15:27 | 55.00025 | 25.32610 | 10009 ft | 331 kts | 342° |
| 2026-05-05 15:28 | 55.02251 | 25.31707 | 10010 ft | 333 kts | 342° |
| 2026-05-05 15:28 | 55.04526 | 25.30790 | 10003 ft | 334 kts | 342° |
| 2026-05-05 15:28 | 55.06799 | 25.29871 | 10006 ft | 334 kts | 342° |
| 2026-05-05 15:28 | 55.09068 | 25.28955 | 10008 ft | 334 kts | 342° |
| 2026-05-05 15:29 | 55.11311 | 25.28043 | 10008 ft | 334 kts | 342° |
| 2026-05-05 15:29 | 55.13586 | 25.27114 | 10006 ft | 334 kts | 342° |
| 2026-05-05 15:29 | 55.15859 | 25.26187 | 10002 ft | 334 kts | 342° |
| 2026-05-05 15:29 | 55.18133 | 25.25257 | 10000 ft | 334 kts | 342° |
| 2026-05-05 15:30 | 55.20372 | 25.24338 | 10006 ft | 335 kts | 342° |
| 2026-05-05 15:30 | 55.22681 | 25.23386 | 10529 ft | 340 kts | 342° |
| 2026-05-05 15:30 | 55.24988 | 25.22438 | 11377 ft | 342 kts | 342° |
| 2026-05-05 15:30 | 55.27317 | 25.21482 | 12128 ft | 346 kts | 341° |
| 2026-05-05 15:31 | 55.29647 | 25.20521 | 12853 ft | 350 kts | 341° |
| 2026-05-05 15:31 | 55.32024 | 25.19480 | 13567 ft | 353 kts | 339° |
| 2026-05-05 15:31 | 55.34413 | 25.18287 | 14209 ft | 356 kts | 338° |
| 2026-05-05 15:31 | 55.36797 | 25.17013 | 14850 ft | 359 kts | 337° |
| 2026-05-05 15:32 | 55.39190 | 25.15704 | 15504 ft | 361 kts | 336° |
| 2026-05-05 15:32 | 55.41576 | 25.14399 | 16167 ft | 364 kts | 336° |
| 2026-05-05 15:32 | 55.44016 | 25.13087 | 16805 ft | 368 kts | 336° |
| 2026-05-05 15:32 | 55.46483 | 25.11781 | 17438 ft | 371 kts | 336° |
| 2026-05-05 15:33 | 55.48977 | 25.10467 | 18072 ft | 374 kts | 336° |
| 2026-05-05 15:33 | 55.51453 | 25.09158 | 18618 ft | 377 kts | 336° |
| 2026-05-05 15:33 | 55.53981 | 25.07818 | 19160 ft | 380 kts | 336° |
| 2026-05-05 15:33 | 55.56533 | 25.06465 | 19693 ft | 383 kts | 336° |
| 2026-05-05 15:34 | 55.59092 | 25.05110 | 19934 ft | 384 kts | 337° |
| 2026-05-05 15:34 | 55.61631 | 25.03779 | 20011 ft | 374 kts | 337° |
| 2026-05-05 15:34 | 55.64107 | 25.02487 | 19992 ft | 368 kts | 337° |
| 2026-05-05 15:34 | 55.66539 | 25.01207 | 19992 ft | 367 kts | 337° |
| 2026-05-05 15:35 | 55.68977 | 24.99912 | 19989 ft | 366 kts | 337° |
| 2026-05-05 15:35 | 55.71424 | 24.98602 | 19988 ft | 366 kts | 336° |
| 2026-05-05 15:35 | 55.73868 | 24.97289 | 19988 ft | 366 kts | 336° |
| 2026-05-05 15:35 | 55.76299 | 24.95986 | 19987 ft | 366 kts | 337° |
| 2026-05-05 15:36 | 55.78743 | 24.94678 | 19987 ft | 366 kts | 337° |
| 2026-05-05 15:36 | 55.81157 | 24.93384 | 19991 ft | 366 kts | 336° |
| 2026-05-05 15:36 | 55.83596 | 24.92071 | 19984 ft | 366 kts | 336° |
| 2026-05-05 15:36 | 55.86039 | 24.90755 | 19984 ft | 366 kts | 336° |
| 2026-05-05 15:37 | 55.88477 | 24.89441 | 19990 ft | 366 kts | 336° |
| 2026-05-05 15:37 | 55.90915 | 24.88129 | 19991 ft | 366 kts | 336° |
| 2026-05-05 15:37 | 55.93347 | 24.86819 | 19990 ft | 375 kts | 336° |
| 2026-05-05 15:37 | 55.95874 | 24.85451 | 19985 ft | 380 kts | 336° |
| 2026-05-05 15:38 | 55.98387 | 24.84092 | 19977 ft | 381 kts | 336° |
| 2026-05-05 15:38 | 56.00924 | 24.82724 | 19979 ft | 381 kts | 336° |
| 2026-05-05 15:38 | 56.03467 | 24.81349 | 19980 ft | 381 kts | 336° |
| 2026-05-05 15:38 | 56.06008 | 24.79966 | 19982 ft | 381 kts | 336° |
| 2026-05-05 15:39 | 56.08547 | 24.78580 | 19981 ft | 381 kts | 336° |
| 2026-05-05 15:39 | 56.11082 | 24.77197 | 19980 ft | 381 kts | 336° |
| 2026-05-05 15:39 | 56.13592 | 24.75830 | 19979 ft | 381 kts | 336° |
| 2026-05-05 15:39 | 56.16134 | 24.74444 | 19980 ft | 381 kts | 336° |
| 2026-05-05 15:40 | 56.18674 | 24.73057 | 19981 ft | 381 kts | 336° |
| 2026-05-05 15:40 | 56.21181 | 24.71680 | 20000 ft | 381 kts | 336° |
| 2026-05-05 15:40 | 56.23719 | 24.70282 | 19993 ft | 381 kts | 336° |
| 2026-05-05 15:40 | 56.26261 | 24.68884 | 19990 ft | 381 kts | 336° |
| 2026-05-05 15:41 | 56.28807 | 24.67487 | 19988 ft | 382 kts | 336° |
| 2026-05-05 15:41 | 56.31350 | 24.66087 | 19986 ft | 382 kts | 336° |
| 2026-05-05 15:41 | 56.33864 | 24.64702 | 19980 ft | 382 kts | 336° |
| 2026-05-05 15:41 | 56.36414 | 24.63316 | 19990 ft | 383 kts | 338° |
| 2026-05-05 15:42 | 56.39072 | 24.62504 | 19988 ft | 389 kts | 345° |
| 2026-05-05 15:42 | 56.41765 | 24.61860 | 19988 ft | 389 kts | 345° |
| 2026-05-05 15:42 | 56.44457 | 24.61219 | 19987 ft | 390 kts | 346° |
| 2026-05-05 15:42 | 56.47147 | 24.60582 | 19987 ft | 389 kts | 346° |
| 2026-05-05 15:43 | 56.49783 | 24.59966 | 19913 ft | 375 kts | 345° |
| 2026-05-05 15:43 | 56.52188 | 24.58745 | 19791 ft | 344 kts | 323° |
| 2026-05-05 15:43 | 56.53873 | 24.56082 | 19670 ft | 312 kts | 297° |
| 2026-05-05 15:43 | 56.54688 | 24.52641 | 19513 ft | 290 kts | 277° |
| 2026-05-05 15:44 | 56.55071 | 24.49076 | 19198 ft | 286 kts | 276° |
| 2026-05-05 15:44 | 56.55431 | 24.45546 | 18851 ft | 284 kts | 276° |
| 2026-05-05 15:44 | 56.55758 | 24.42017 | 18525 ft | 282 kts | 275° |
| 2026-05-05 15:44 | 56.56070 | 24.38547 | 18233 ft | 279 kts | 276° |
| 2026-05-05 15:45 | 56.56727 | 24.35238 | 18080 ft | 281 kts | 294° |
| 2026-05-05 15:45 | 56.57796 | 24.32265 | 17744 ft | 281 kts | 296° |
| 2026-05-05 15:45 | 56.58885 | 24.29329 | 17402 ft | 280 kts | 297° |
| 2026-05-05 15:45 | 56.59962 | 24.26448 | 17052 ft | 279 kts | 297° |
| 2026-05-05 15:46 | 56.61075 | 24.23455 | 16248 ft | 293 kts | 297° |
| 2026-05-05 15:46 | 56.62238 | 24.20295 | 15356 ft | 309 kts | 297° |
| 2026-05-05 15:46 | 56.63465 | 24.16950 | 14433 ft | 325 kts | 298° |
| 2026-05-05 15:46 | 56.64751 | 24.13447 | 13461 ft | 340 kts | 298° |
| 2026-05-05 15:47 | 56.66096 | 24.09788 | 12326 ft | 355 kts | 299° |
| 2026-05-05 15:47 | 56.67020 | 24.07276 | 11542 ft | 363 kts | 300° |
| 2026-05-05 15:47 | 56.68915 | 24.02128 | 10308 ft | 370 kts | 300° |
| 2026-05-05 15:47 | 56.70345 | 23.98247 | 9661 ft | 366 kts | 300° |
| 2026-05-05 15:48 | 56.72010 | 23.94768 | 8976 ft | 370 kts | 318° |
| 2026-05-05 15:48 | 56.74329 | 23.92787 | 8248 ft | 380 kts | 342° |
| 2026-05-05 15:48 | 56.76991 | 23.92463 | 7320 ft | 389 kts | 0° |
| 2026-05-05 15:48 | 56.79698 | 23.93195 | 6309 ft | 397 kts | 9° |
| 2026-05-05 15:49 | 56.82316 | 23.94682 | 5256 ft | 389 kts | 19° |
| 2026-05-05 15:49 | 56.84862 | 23.96296 | 4406 ft | 379 kts | 14° |
| 2026-05-05 15:49 | 56.87367 | 23.96921 | 3193 ft | 356 kts | 355° |
| 2026-05-05 15:49 | 56.89772 | 23.96732 | 1247 ft | 335 kts | 1° |
| 2026-05-05 15:50 | 56.92116 | 23.97006 | 545 ft | 327 kts | 4° |
| 2026-05-05 15:50 | 56.94309 | 23.97312 | 1138 ft | 319 kts | 3° |
| 2026-05-05 15:50 | 56.96573 | 23.97669 | 1848 ft | 339 kts | 3° |
| 2026-05-05 15:50 | 56.98977 | 23.98034 | 2634 ft | 351 kts | 2° |
| 2026-05-05 15:51 | 57.01398 | 23.98230 | 3848 ft | 341 kts | 354° |
| 2026-05-05 15:51 | 57.03676 | 23.97429 | 5095 ft | 327 kts | 335° |
| 2026-05-05 15:51 | 57.05509 | 23.95267 | 6346 ft | 309 kts | 310° |
| 2026-05-05 15:51 | 57.06645 | 23.92086 | 7529 ft | 290 kts | 286° |
| 2026-05-05 15:52 | 57.06869 | 23.88716 | 8587 ft | 239 kts | 257° |
| 2026-05-05 15:52 | 57.06199 | 23.86342 | 9379 ft | 192 kts | 225° |
| 2026-05-05 15:52 | 57.05154 | 23.85012 | 9367 ft | 183 kts | 217° |
| 2026-05-05 15:52 | 57.04026 | 23.83882 | 9015 ft | 187 kts | 212° |
| 2026-05-05 15:53 | 57.02823 | 23.82915 | 8671 ft | 188 kts | 208° |
| 2026-05-05 15:53 | 57.01581 | 23.82074 | 8293 ft | 200 kts | 205° |
| 2026-05-05 15:53 | 57.00190 | 23.81204 | 8014 ft | 219 kts | 204° |
| 2026-05-05 15:53 | 56.98737 | 23.80391 | 7735 ft | 217 kts | 201° |
| 2026-05-05 15:54 | 56.97280 | 23.79677 | 7447 ft | 215 kts | 199° |
| 2026-05-05 15:54 | 56.95823 | 23.79064 | 7173 ft | 214 kts | 197° |
| 2026-05-05 15:54 | 56.94372 | 23.78533 | 6922 ft | 208 kts | 195° |
| 2026-05-05 15:54 | 56.92949 | 23.78077 | 6647 ft | 207 kts | 194° |
| 2026-05-05 15:55 | 56.91528 | 23.77656 | 6377 ft | 207 kts | 194° |
| 2026-05-05 15:55 | 56.90144 | 23.77243 | 6230 ft | 200 kts | 195° |
| 2026-05-05 15:55 | 56.88786 | 23.76807 | 6058 ft | 195 kts | 192° |
| 2026-05-05 15:55 | 56.87436 | 23.76636 | 5844 ft | 194 kts | 185° |
| 2026-05-05 15:56 | 56.86092 | 23.76803 | 5639 ft | 193 kts | 177° |
| 2026-05-05 15:56 | 56.84789 | 23.77274 | 5384 ft | 194 kts | 172° |
| 2026-05-05 15:56 | 56.83463 | 23.77909 | 5033 ft | 199 kts | 168° |
| 2026-05-05 15:56 | 56.82153 | 23.78722 | 4786 ft | 198 kts | 163° |
| 2026-05-05 15:57 | 56.80895 | 23.79716 | 4517 ft | 196 kts | 158° |
| 2026-05-05 15:57 | 56.79683 | 23.80881 | 4255 ft | 197 kts | 153° |
| 2026-05-05 15:57 | 56.78516 | 23.82213 | 4015 ft | 198 kts | 149° |
| 2026-05-05 15:57 | 56.77508 | 23.83890 | 3754 ft | 201 kts | 124° |
| 2026-05-05 15:58 | 56.77079 | 23.86350 | 3420 ft | 214 kts | 89° |
| 2026-05-05 15:58 | 56.77604 | 23.88966 | 3556 ft | 235 kts | 46° |
| 2026-05-05 15:58 | 56.78844 | 23.91005 | 3997 ft | 241 kts | 39° |
| 2026-05-05 15:58 | 56.80053 | 23.92972 | 4093 ft | 225 kts | 41° |
| 2026-05-05 15:59 | 56.81185 | 23.94857 | 3938 ft | 220 kts | 34° |
| 2026-05-05 15:59 | 56.82548 | 23.96045 | 3493 ft | 215 kts | 8° |
| 2026-05-05 15:59 | 56.84041 | 23.96211 | 2888 ft | 219 kts | 355° |
| 2026-05-05 15:59 | 56.85570 | 23.96036 | 2214 ft | 226 kts | 353° |
| 2026-05-05 16:00 | 56.87156 | 23.96109 | 1559 ft | 230 kts | 9° |
| 2026-05-05 16:00 | 56.88735 | 23.96575 | 853 ft | 232 kts | 1° |
| 2026-05-05 16:00 | 56.90328 | 23.96780 | 278 ft | 227 kts | 7° |
| 2026-05-05 16:00 | 56.91847 | 23.97028 | 38 ft | 202 kts | 5° |
| 2026-05-05 16:01 | 56.92785 | 23.97183 | 37 ft | 53 kts | 5° |
| 2026-05-05 16:01 | 56.92928 | 23.97216 | 36 ft | 16 kts | 15° |
| 2026-05-05 16:01 | 56.92959 | 23.97363 | 36 ft | 0 kts | 93° |
| 2026-05-05 16:03 | 56.92959 | 23.97371 | 36 ft | 4 kts | 93° |
| 2026-05-05 16:03 | 56.92952 | 23.97502 | 36 ft | 16 kts | 97° |
| 2026-05-05 16:03 | 56.92859 | 23.97589 | 36 ft | 21 kts | 186° |
| 2026-05-05 16:03 | 56.92730 | 23.97568 | 36 ft | 21 kts | 187° |
| 2026-05-05 16:04 | 56.92606 | 23.97548 | 36 ft | 19 kts | 185° |
| 2026-05-05 16:04 | 56.92490 | 23.97530 | 36 ft | 15 kts | 185° |
| 2026-05-05 16:04 | 56.92390 | 23.97509 | 36 ft | 14 kts | 188° |
| 2026-05-05 16:04 | 56.92302 | 23.97488 | 37 ft | 12 kts | 185° |
| 2026-05-05 16:05 | 56.92222 | 23.97490 | 37 ft | 10 kts | 152° |
| 2026-05-05 16:05 | 56.92219 | 23.97518 | 37 ft | 0 kts | 88° |
| 2026-05-05 16:05 | 56.92213 | 23.97522 | 37 ft | 2 kts | 153° |
| 2026-05-05 16:05 | 56.92165 | 23.97490 | 37 ft | 13 kts | 173° |
| 2026-05-05 16:06 | 56.92158 | 23.97570 | 35 ft | 3 kts | 15° |
| 2026-05-05 16:06 | 56.92193 | 23.97583 | 37 ft | 3 kts | 9° |
| 2026-05-05 16:06 | 56.92196 | 23.97584 | 37 ft | 0 kts | 9° |